createdAt,value
2022-12-11T00:00:29.066Z,100279.56
2022-12-11T00:02:56.703Z,100279.50
2022-12-11T00:05:23.269Z,100274.38
2022-12-11T00:07:49.990Z,100284.53
2022-12-11T00:10:16.710Z,100284.53
2022-12-11T00:12:50.611Z,100280.13
2022-12-11T00:15:17.924Z,100283.72
2022-12-11T00:17:46.708Z,100277.75
2022-12-11T00:20:15.423Z,100288.16
2022-12-11T00:22:42.358Z,100285.59
2022-12-11T00:25:09.876Z,100276.97
2022-12-11T00:27:36.690Z,100279.59
2022-12-11T00:30:06.468Z,100283.63
2022-12-11T00:32:37.597Z,100278.44
2022-12-11T00:35:04.915Z,100281.13
2022-12-11T00:37:31.553Z,100266.56
2022-12-11T00:39:58.231Z,100263.06
2022-12-11T00:42:24.845Z,100263.03
2022-12-11T00:44:52.204Z,100257.88
2022-12-11T00:47:18.803Z,100268.94
2022-12-11T00:49:49.744Z,100267.13
2022-12-11T00:52:18.072Z,100274.91
2022-12-11T00:54:45.813Z,100274.00
2022-12-11T00:57:12.328Z,100269.56
2022-12-11T00:59:41.428Z,100266.06
2022-12-11T01:02:10.167Z,100270.31
2022-12-11T01:04:42.010Z,100274.00
2022-12-11T01:07:08.687Z,100280.75
2022-12-11T01:09:54.024Z,100277.38
2022-12-11T01:12:20.790Z,100285.38
2022-12-11T01:14:47.353Z,100278.50
2022-12-11T01:17:14.732Z,100284.53
2022-12-11T01:19:41.348Z,100281.94
2022-12-11T01:22:08.240Z,100286.22
2022-12-11T01:24:34.873Z,100287.16
2022-12-11T01:27:01.548Z,100288.81
2022-12-11T01:29:30.180Z,100289.56
2022-12-11T01:31:56.827Z,100286.38
2022-12-11T01:34:23.440Z,100283.69
2022-12-11T01:36:52.253Z,100292.25
2022-12-11T01:39:20.708Z,100289.72
2022-12-11T01:41:47.399Z,100295.78
2022-12-11T01:44:16.322Z,100296.06
2022-12-11T01:46:43.638Z,100293.69
2022-12-11T01:49:13.184Z,100299.09
2022-12-11T01:51:49.040Z,100297.41
2022-12-11T01:54:23.708Z,100291.16
2022-12-11T01:56:53.149Z,100287.63
2022-12-11T01:59:26.527Z,100293.88
2022-12-11T02:02:23.777Z,100286.78
2022-12-11T02:04:50.476Z,100291.81
2022-12-11T02:07:17.375Z,100293.56
2022-12-11T02:09:46.750Z,100290.56
2022-12-11T02:12:41.537Z,100287.69
2022-12-11T02:15:27.457Z,100291.41
2022-12-11T02:18:16.199Z,100301.00
2022-12-11T02:20:53.519Z,100295.63
2022-12-11T02:23:57.740Z,100293.16
2022-12-11T02:26:55.221Z,100303.13
2022-12-11T02:29:47.276Z,100297.59
2022-12-11T02:32:19.619Z,100292.84
2022-12-11T02:34:58.510Z,100287.53
2022-12-11T02:37:29.492Z,100290.88
2022-12-11T02:39:57.234Z,100289.22
2022-12-11T02:42:29.671Z,100286.84
2022-12-11T02:44:59.146Z,100298.66
2022-12-11T02:47:28.363Z,100288.50
2022-12-11T02:49:58.270Z,100291.09
2022-12-11T02:52:26.985Z,100272.91
2022-12-11T02:54:58.949Z,100277.03
2022-12-11T02:57:34.988Z,100272.91
2022-12-11T03:00:01.966Z,100275.00
2022-12-11T03:02:28.698Z,100270.78
2022-12-11T03:04:57.292Z,100266.50
2022-12-11T03:07:27.624Z,100275.13
2022-12-11T03:09:54.711Z,100275.00
2022-12-11T03:12:27.628Z,100277.16
2022-12-11T03:14:54.430Z,100276.44
2022-12-11T03:17:31.221Z,100277.03
2022-12-11T03:20:12.584Z,100278.59
2022-12-11T03:22:46.862Z,100286.19
2022-12-11T03:25:20.673Z,100271.22
2022-12-11T03:28:04.406Z,100265.31
2022-12-11T03:30:33.138Z,100270.00
2022-12-11T03:33:26.535Z,100274.88
2022-12-11T03:36:07.074Z,100266.63
2022-12-11T03:38:38.426Z,100263.41
2022-12-11T03:41:07.781Z,100265.63
2022-12-11T03:43:35.597Z,100268.09
2022-12-11T03:46:02.529Z,100264.75
2022-12-11T03:48:34.560Z,100267.59
2022-12-11T03:51:05.123Z,100271.00
2022-12-11T03:53:34.399Z,100266.59
2022-12-11T03:56:06.694Z,100279.53
2022-12-11T03:58:33.465Z,100279.28
2022-12-11T04:01:03.206Z,100277.91
2022-12-11T04:03:32.034Z,100281.28
2022-12-11T04:05:58.656Z,100270.78
2022-12-11T04:08:25.517Z,100271.66
2022-12-11T04:11:11.198Z,100264.00
2022-12-11T04:13:38.912Z,100270.09
2022-12-11T04:16:05.597Z,100268.63
2022-12-11T04:18:53.179Z,100258.19
2022-12-11T04:21:39.862Z,100265.25
2022-12-11T04:24:16.636Z,100265.97
2022-12-11T04:26:47.609Z,100273.91
2022-12-11T04:29:15.486Z,100259.38
2022-12-11T04:31:42.208Z,100270.50
2022-12-11T04:34:09.235Z,100266.97
2022-12-11T04:36:38.467Z,100267.75
2022-12-11T04:39:06.255Z,100267.78
2022-12-11T04:41:33.514Z,100259.81
2022-12-11T04:44:00.168Z,100265.16
2022-12-11T04:46:26.968Z,100261.63
2022-12-11T04:48:57.715Z,100268.63
2022-12-11T04:51:25.126Z,100262.56
2022-12-11T04:53:54.389Z,100269.84
2022-12-11T04:56:21.223Z,100263.41
2022-12-11T04:58:48.435Z,100261.81
2022-12-11T05:01:18.652Z,100258.44
2022-12-11T05:03:45.798Z,100260.09
2022-12-11T05:06:13.163Z,100260.94
2022-12-11T05:08:43.844Z,100256.66
2022-12-11T05:11:13.600Z,100258.50
2022-12-11T05:13:40.715Z,100251.53
2022-12-11T05:16:09.740Z,100253.22
2022-12-11T05:18:36.569Z,100254.91
2022-12-11T05:21:06.753Z,100258.41
2022-12-11T05:23:34.109Z,100256.78
2022-12-11T05:26:04.391Z,100246.41
2022-12-11T05:28:33.939Z,100248.03
2022-12-11T05:31:11.966Z,100242.13
2022-12-11T05:33:38.716Z,100241.78
2022-12-11T05:36:06.756Z,100231.28
2022-12-11T05:38:36.561Z,100241.00
2022-12-11T05:41:06.066Z,100239.31
2022-12-11T05:43:34.684Z,100240.97
2022-12-11T05:46:14.968Z,100237.63
2022-12-11T05:48:42.625Z,100233.03
2022-12-11T05:51:09.947Z,100233.94
2022-12-11T05:53:43.318Z,100235.81
2022-12-11T05:56:15.855Z,100232.38
2022-12-11T05:58:43.993Z,100237.56
2022-12-11T06:01:13.328Z,100239.38
2022-12-11T06:03:40.026Z,100234.25
2022-12-11T06:06:09.737Z,100229.97
2022-12-11T06:08:36.454Z,100229.00
2022-12-11T06:11:04.049Z,100235.75
2022-12-11T06:13:30.596Z,100220.47
2022-12-11T06:16:02.601Z,100227.84
2022-12-11T06:18:29.518Z,100230.38
2022-12-11T06:20:56.140Z,100224.38
2022-12-11T06:23:23.114Z,100237.31
2022-12-11T06:25:49.716Z,100233.16
2022-12-11T06:28:16.377Z,100232.94
2022-12-11T06:30:43.127Z,100231.97
2022-12-11T06:33:10.591Z,100221.47
2022-12-11T06:35:42.059Z,100215.44
2022-12-11T06:38:10.763Z,100214.63
2022-12-11T06:40:38.254Z,100213.78
2022-12-11T06:43:04.906Z,100207.63
2022-12-11T06:45:32.303Z,100206.75
2022-12-11T06:47:59.139Z,100197.59
2022-12-11T06:50:26.090Z,100205.34
2022-12-11T06:52:52.695Z,100201.06
2022-12-11T06:55:19.437Z,100206.38
2022-12-11T06:57:46.130Z,100216.84
2022-12-11T07:00:13.496Z,100202.88
2022-12-11T07:02:40.220Z,100203.66
2022-12-11T07:05:14.544Z,100210.78
2022-12-11T07:07:43.311Z,100214.19
2022-12-11T07:10:10.235Z,100212.41
2022-12-11T07:12:44.784Z,100206.28
2022-12-11T07:15:11.931Z,100221.91
2022-12-11T07:17:50.687Z,100227.44
2022-12-11T07:20:17.456Z,100229.88
2022-12-11T07:22:46.699Z,100233.28
2022-12-11T07:25:14.244Z,100232.19
2022-12-11T07:27:41.751Z,100239.19
2022-12-11T07:30:09.557Z,100231.41
2022-12-11T07:32:36.519Z,100240.31
2022-12-11T07:35:03.989Z,100239.41
2022-12-11T07:37:30.563Z,100237.50
2022-12-11T07:39:57.174Z,100240.16
2022-12-11T07:42:24.381Z,100234.34
2022-12-11T07:44:51.063Z,100243.03
2022-12-11T07:47:19.702Z,100241.09
2022-12-11T07:49:46.340Z,100238.34
2022-12-11T07:52:12.919Z,100253.69
2022-12-11T07:54:42.020Z,100251.00
2022-12-11T07:57:13.857Z,100248.50
2022-12-11T07:59:41.854Z,100245.72
2022-12-11T08:02:12.062Z,100240.16
2022-12-11T08:04:41.367Z,100232.44
2022-12-11T08:07:07.963Z,100231.53
2022-12-11T08:09:36.755Z,100225.47
2022-12-11T08:12:03.616Z,100227.94
2022-12-11T08:14:30.695Z,100228.47
2022-12-11T08:17:00.260Z,100236.63
2022-12-11T08:19:27.981Z,100240.00
2022-12-11T08:21:54.468Z,100239.72
2022-12-11T08:24:21.142Z,100240.63
2022-12-11T08:26:48.382Z,100233.88
2022-12-11T08:29:18.138Z,100241.63
2022-12-11T08:31:46.868Z,100245.66
2022-12-11T08:34:14.190Z,100245.66
2022-12-11T08:36:41.472Z,100241.66
2022-12-11T08:39:08.170Z,100246.59
2022-12-11T08:41:34.903Z,100252.41
2022-12-11T08:44:05.980Z,100253.94
2022-12-11T08:46:32.957Z,100255.63
2022-12-11T08:49:00.297Z,100257.09
2022-12-11T08:51:28.482Z,100250.72
2022-12-11T08:53:56.948Z,100250.88
2022-12-11T08:56:24.341Z,100248.31
2022-12-11T08:58:51.826Z,100243.91
2022-12-11T09:01:23.884Z,100247.34
2022-12-11T09:03:52.121Z,100258.38
2022-12-11T09:06:21.904Z,100250.56
2022-12-11T09:08:52.664Z,100243.16
2022-12-11T09:11:27.004Z,100250.22
2022-12-11T09:13:54.415Z,100248.38
2022-12-11T09:16:26.000Z,100248.13
2022-12-11T09:18:54.892Z,100251.13
2022-12-11T09:21:24.055Z,100254.59
2022-12-11T09:23:54.715Z,100245.22
2022-12-11T09:26:21.829Z,100253.03
2022-12-11T09:28:50.976Z,100247.56
2022-12-11T09:31:28.467Z,100244.06
2022-12-11T09:34:16.838Z,100230.75
2022-12-11T09:36:44.331Z,100238.34
2022-12-11T09:39:12.718Z,100238.34
2022-12-11T09:41:45.158Z,100235.38
2022-12-11T09:44:41.095Z,100231.44
2022-12-11T09:47:27.902Z,100238.97
2022-12-11T09:50:14.792Z,100246.75
2022-12-11T09:52:53.810Z,100241.84
2022-12-11T09:55:59.625Z,100237.75
2022-12-11T09:58:51.379Z,100233.56
2022-12-11T10:01:26.462Z,100238.59
2022-12-11T10:04:13.843Z,100231.00
2022-12-11T10:07:01.109Z,100230.06
2022-12-11T10:09:42.965Z,100230.19
2022-12-11T10:12:20.789Z,100230.75
2022-12-11T10:15:11.091Z,100223.25
2022-12-11T10:17:39.207Z,100225.56
2022-12-11T10:20:18.440Z,100218.06
2022-12-11T10:22:45.905Z,100212.00
2022-12-11T10:25:34.328Z,100223.25
2022-12-11T10:28:12.292Z,100219.84
2022-12-11T10:30:45.637Z,100218.88
2022-12-11T10:33:22.407Z,100206.13
2022-12-11T10:35:52.819Z,100206.13
2022-12-11T10:38:31.979Z,100196.59
2022-12-11T10:41:02.410Z,100185.06
2022-12-11T10:43:44.075Z,100187.78
2022-12-11T10:46:31.392Z,100191.78
2022-12-11T10:49:01.873Z,100183.06
2022-12-11T10:51:31.386Z,100185.53
2022-12-11T10:54:08.723Z,100178.25
2022-12-11T10:56:40.167Z,100186.00
2022-12-11T10:59:07.078Z,100185.38
2022-12-11T11:01:36.393Z,100184.09
2022-12-11T11:04:15.182Z,100193.84
2022-12-11T11:06:41.930Z,100190.88
2022-12-11T11:09:30.078Z,100178.81
2022-12-11T11:12:00.846Z,100178.81
2022-12-11T11:14:31.241Z,100173.81
2022-12-11T11:17:03.187Z,100183.09
2022-12-11T11:19:35.627Z,100192.97
2022-12-11T11:22:07.458Z,100191.19
2022-12-11T11:24:41.765Z,100190.34
2022-12-11T11:27:23.842Z,100180.03
2022-12-11T11:30:05.530Z,100163.53
2022-12-11T11:32:42.553Z,100157.03
2022-12-11T11:35:19.132Z,100156.09
2022-12-11T11:37:54.149Z,100163.75
2022-12-11T11:40:36.466Z,100157.88
2022-12-11T11:43:22.638Z,100152.47
2022-12-11T11:45:57.763Z,100153.66
2022-12-11T11:48:45.960Z,100156.78
2022-12-11T11:51:16.524Z,100157.88
2022-12-11T11:53:49.743Z,100150.25
2022-12-11T11:56:24.199Z,100142.00
2022-12-11T11:59:19.861Z,100148.34
2022-12-11T12:01:46.735Z,100145.97
2022-12-11T12:04:14.057Z,100142.34
2022-12-11T12:07:18.403Z,100138.91
2022-12-11T12:10:10.885Z,100156.69
2022-12-11T12:12:53.336Z,100150.72
2022-12-11T12:15:44.378Z,100142.81
2022-12-11T12:18:26.399Z,100149.88
2022-12-11T12:21:20.829Z,100149.88
2022-12-11T12:23:56.491Z,100126.50
2022-12-11T12:26:35.898Z,100128.13
2022-12-11T12:29:29.005Z,100127.25
2022-12-11T12:32:25.495Z,100123.72
2022-12-11T12:35:10.202Z,100125.53
2022-12-11T12:37:56.008Z,100111.63
2022-12-11T12:41:07.322Z,100113.31
2022-12-11T12:43:36.733Z,100123.84
2022-12-11T12:46:29.200Z,100140.38
2022-12-11T12:48:58.539Z,100134.34
2022-12-11T12:51:27.115Z,100133.28
2022-12-11T12:53:58.564Z,100123.75
2022-12-11T12:56:27.937Z,100124.41
2022-12-11T12:58:54.631Z,100121.81
2022-12-11T13:01:24.151Z,100116.81
2022-12-11T13:04:04.103Z,100114.16
2022-12-11T13:06:36.792Z,100111.50
2022-12-11T13:09:26.491Z,100108.69
2022-12-11T13:11:57.923Z,100109.72
2022-12-11T13:14:30.245Z,100122.00
2022-12-11T13:17:20.143Z,100116.63
2022-12-11T13:19:49.160Z,100116.72
2022-12-11T13:22:15.686Z,100118.63
2022-12-11T13:25:01.957Z,100122.03
2022-12-11T13:27:34.742Z,100114.34
2022-12-11T13:30:05.877Z,100110.97
2022-12-11T13:32:33.656Z,100117.91
2022-12-11T13:35:06.035Z,100123.97
2022-12-11T13:37:38.571Z,100123.13
2022-12-11T13:40:14.706Z,100118.75
2022-12-11T13:42:50.177Z,100114.06
2022-12-11T13:45:42.746Z,100113.06
2022-12-11T13:48:27.268Z,100112.63
2022-12-11T13:50:55.167Z,100118.09
2022-12-11T13:53:22.486Z,100113.69
2022-12-11T13:56:08.145Z,100113.50
2022-12-11T13:58:38.174Z,100122.00
2022-12-11T14:01:41.072Z,100111.53
2022-12-11T14:04:17.799Z,100117.28
2022-12-11T14:06:45.019Z,100123.63
2022-12-11T14:09:18.987Z,100123.41
2022-12-11T14:11:50.909Z,100128.06
2022-12-11T14:14:43.650Z,100135.13
2022-12-11T14:17:15.291Z,100135.97
2022-12-11T14:19:49.981Z,100132.44
2022-12-11T14:22:20.057Z,100135.91
2022-12-11T14:24:52.729Z,100139.41
2022-12-11T14:27:20.822Z,100148.16
2022-12-11T14:29:48.595Z,100151.59
2022-12-11T14:32:25.094Z,100149.94
2022-12-11T14:34:55.947Z,100150.78
2022-12-11T14:37:23.836Z,100146.47
2022-12-11T14:40:14.470Z,100147.19
2022-12-11T14:42:51.141Z,100156.78
2022-12-11T14:45:31.432Z,100156.84
2022-12-11T14:48:02.231Z,100155.09
2022-12-11T14:50:39.369Z,100163.75
2022-12-11T14:53:13.750Z,100158.56
2022-12-11T14:55:41.213Z,100159.44
2022-12-11T14:58:17.758Z,100149.91
2022-12-11T15:00:44.432Z,100151.66
2022-12-11T15:03:17.513Z,100151.66
2022-12-11T15:05:55.897Z,100141.22
2022-12-11T15:08:27.173Z,100140.38
2022-12-11T15:11:04.221Z,100146.44
2022-12-11T15:13:33.004Z,100149.91
2022-12-11T15:16:07.356Z,100149.94
2022-12-11T15:18:36.858Z,100148.22
2022-12-11T15:21:10.041Z,100148.22
2022-12-11T15:23:57.615Z,100153.38
2022-12-11T15:26:37.665Z,100146.44
2022-12-11T15:29:07.271Z,100145.59
2022-12-11T15:31:35.248Z,100153.38
2022-12-11T15:34:02.045Z,100156.81
2022-12-11T15:36:37.394Z,100164.63
2022-12-11T15:39:08.685Z,100167.22
2022-12-11T15:41:35.737Z,100160.28
2022-12-11T15:44:04.228Z,100156.84
2022-12-11T15:46:38.662Z,100156.88
2022-12-11T15:49:12.659Z,100164.66
2022-12-11T15:51:42.900Z,100161.13
2022-12-11T15:54:10.439Z,100167.16
2022-12-11T15:56:37.020Z,100166.19
2022-12-11T15:59:06.845Z,100170.63
2022-12-11T16:01:34.778Z,100170.56
2022-12-11T16:04:04.874Z,100172.09
2022-12-11T16:06:33.195Z,100179.06
2022-12-11T16:08:59.657Z,100171.41
2022-12-11T16:11:26.274Z,100175.53
2022-12-11T16:13:52.893Z,100183.19
2022-12-11T16:16:19.543Z,100177.06
2022-12-11T16:18:46.121Z,100190.84
2022-12-11T16:21:21.347Z,100190.06
2022-12-11T16:23:48.633Z,100195.13
2022-12-11T16:26:15.807Z,100188.28
2022-12-11T16:28:43.189Z,100180.84
2022-12-11T16:31:11.989Z,100179.13
2022-12-11T16:33:41.275Z,100182.56
2022-12-11T16:36:16.316Z,100181.00
2022-12-11T16:38:54.235Z,100181.88
2022-12-11T16:41:22.905Z,100176.69
2022-12-11T16:43:49.846Z,100179.16
2022-12-11T16:46:21.447Z,100187.78
2022-12-11T16:48:48.395Z,100185.97
2022-12-11T16:51:17.612Z,100180.84
2022-12-11T16:53:44.488Z,100175.69
2022-12-11T16:56:18.180Z,100180.78
2022-12-11T16:58:46.840Z,100173.88
2022-12-11T17:01:15.552Z,100176.47
2022-12-11T17:03:44.476Z,100176.38
2022-12-11T17:06:14.415Z,100180.78
2022-12-11T17:08:42.802Z,100179.16
2022-12-11T17:11:21.750Z,100178.41
2022-12-11T17:13:54.031Z,100177.53
2022-12-11T17:16:22.290Z,100179.28
2022-12-11T17:18:48.873Z,100172.38
2022-12-11T17:21:17.704Z,100167.16
2022-12-11T17:23:44.551Z,100168.88
2022-12-11T17:26:11.795Z,100177.56
2022-12-11T17:28:39.800Z,100180.19
2022-12-11T17:31:14.540Z,100163.75
2022-12-11T17:33:41.474Z,100169.81
2022-12-11T17:36:08.605Z,100168.91
2022-12-11T17:38:35.891Z,100163.66
2022-12-11T17:41:08.213Z,100163.72
2022-12-11T17:43:34.894Z,100162.06
2022-12-11T17:46:02.122Z,100162.03
2022-12-11T17:48:30.950Z,100160.31
2022-12-11T17:50:58.459Z,100152.53
2022-12-11T17:53:26.395Z,100162.03
2022-12-11T17:55:53.203Z,100171.53
2022-12-11T17:58:22.919Z,100161.16
2022-12-11T18:00:53.227Z,100163.75
2022-12-11T18:03:20.822Z,100168.09
2022-12-11T18:05:55.160Z,100160.31
2022-12-11T18:08:25.998Z,100165.41
2022-12-11T18:10:53.926Z,100163.50
2022-12-11T18:13:21.930Z,100162.75
2022-12-11T18:16:03.305Z,100155.00
2022-12-11T18:18:30.727Z,100165.31
2022-12-11T18:20:57.354Z,100163.66
2022-12-11T18:23:24.187Z,100162.69
2022-12-11T18:25:52.399Z,100163.63
2022-12-11T18:28:19.305Z,100172.25
2022-12-11T18:30:46.503Z,100160.94
2022-12-11T18:33:13.759Z,100154.84
2022-12-11T18:35:41.296Z,100158.38
2022-12-11T18:38:08.144Z,100162.63
2022-12-11T18:40:34.829Z,100168.56
2022-12-11T18:43:01.494Z,100166.19
2022-12-11T18:45:28.139Z,100168.06
2022-12-11T18:47:56.539Z,100171.63
2022-12-11T18:50:23.160Z,100162.78
2022-12-11T18:52:53.947Z,100164.56
2022-12-11T18:55:26.916Z,100175.50
2022-12-11T18:57:53.659Z,100173.09
2022-12-11T19:00:22.137Z,100173.53
2022-12-11T19:02:52.283Z,100174.47
2022-12-11T19:05:18.984Z,100177.63
2022-12-11T19:07:45.645Z,100177.22
2022-12-11T19:10:12.443Z,100179.00
2022-12-11T19:12:39.083Z,100178.16
2022-12-11T19:15:08.290Z,100178.56
2022-12-11T19:17:34.919Z,100184.00
2022-12-11T19:20:13.584Z,100174.63
2022-12-11T19:22:48.233Z,100179.00
2022-12-11T19:25:15.497Z,100178.22
2022-12-11T19:27:42.162Z,100180.72
2022-12-11T19:30:09.438Z,100180.75
2022-12-11T19:32:36.512Z,100176.47
2022-12-11T19:35:03.969Z,100182.41
2022-12-11T19:37:30.625Z,100181.50
2022-12-11T19:39:57.188Z,100179.00
2022-12-11T19:42:23.808Z,100176.44
2022-12-11T19:44:50.502Z,100165.22
2022-12-11T19:47:20.171Z,100161.81
2022-12-11T19:49:48.655Z,100164.28
2022-12-11T19:52:15.352Z,100159.94
2022-12-11T19:54:44.714Z,100158.28
2022-12-11T19:57:11.365Z,100159.91
2022-12-11T19:59:37.957Z,100158.03
2022-12-11T20:02:05.127Z,100170.50
2022-12-11T20:04:31.845Z,100167.06
2022-12-11T20:06:58.517Z,100165.41
2022-12-11T20:09:25.272Z,100155.28
2022-12-11T20:11:52.002Z,100152.81
2022-12-11T20:14:22.978Z,100149.19
2022-12-11T20:19:37.168Z,100154.56
2022-12-11T20:22:06.901Z,100157.97
2022-12-11T20:24:33.712Z,100151.72
2022-12-11T20:27:00.470Z,100159.28
2022-12-11T20:29:28.090Z,100156.75
2022-12-11T20:31:54.778Z,100162.00
2022-12-11T20:34:21.487Z,100161.97
2022-12-11T20:36:50.596Z,100165.78
2022-12-11T20:39:17.290Z,100162.63
2022-12-11T20:41:52.791Z,100152.56
2022-12-11T20:44:22.680Z,100157.69
2022-12-11T20:46:50.746Z,100152.69
2022-12-11T20:49:17.347Z,100154.19
2022-12-11T20:51:44.078Z,100156.72
2022-12-11T20:54:10.736Z,100164.41
2022-12-11T20:56:38.071Z,100166.16
2022-12-11T20:59:04.807Z,100159.31
2022-12-11T21:01:33.084Z,100165.53
2022-12-11T21:04:00.076Z,100166.25
2022-12-11T21:06:38.711Z,100172.47
2022-12-11T21:09:09.508Z,100165.47
2022-12-11T21:11:36.151Z,100169.66
2022-12-11T21:14:03.911Z,100167.75
2022-12-11T21:16:30.746Z,100174.56
2022-12-11T21:18:57.999Z,100172.53
2022-12-11T21:21:27.802Z,100179.00
2022-12-11T21:23:54.691Z,100158.47
2022-12-11T21:26:21.384Z,100166.31
2022-12-11T21:28:48.130Z,100161.13
2022-12-11T21:31:17.276Z,100168.19
2022-12-11T21:33:44.421Z,100176.47
2022-12-11T21:36:12.705Z,100163.50
2022-12-11T21:38:40.798Z,100171.22
2022-12-11T21:41:13.741Z,100165.41
2022-12-11T21:44:03.261Z,100160.22
2022-12-11T21:46:29.159Z,100163.03
2022-12-11T21:48:55.996Z,100162.88
2022-12-11T21:51:37.179Z,100163.22
2022-12-11T21:54:06.426Z,100161.19
2022-12-11T21:56:33.262Z,100164.91
2022-12-11T21:59:03.266Z,100151.16
2022-12-11T22:01:42.901Z,100166.53
2022-12-11T22:04:13.368Z,100173.47
2022-12-11T22:06:42.880Z,100170.06
2022-12-11T22:09:10.478Z,100163.84
2022-12-11T22:11:42.066Z,100159.91
2022-12-11T22:14:17.912Z,100158.03
2022-12-11T22:16:47.583Z,100164.94
2022-12-11T22:19:14.256Z,100164.00
2022-12-11T22:21:41.375Z,100175.00
2022-12-11T22:24:08.340Z,100165.59
2022-12-11T22:26:35.035Z,100168.28
2022-12-11T22:29:03.712Z,100168.28
2022-12-11T22:31:30.366Z,100166.56
2022-12-11T22:33:57.075Z,100162.25
2022-12-11T22:36:26.167Z,100164.00
2022-12-11T22:38:53.082Z,100161.41
2022-12-11T22:41:31.551Z,100165.88
2022-12-11T22:43:58.722Z,100156.28
2022-12-11T22:46:28.716Z,100162.25
2022-12-11T22:48:55.874Z,100174.22
2022-12-11T22:51:22.979Z,100168.28
2022-12-11T22:53:49.584Z,100165.53
2022-12-11T22:56:16.358Z,100166.31
2022-12-11T22:58:51.918Z,100173.97
2022-12-11T23:01:21.720Z,100167.22
2022-12-11T23:03:48.965Z,100169.91
2022-12-11T23:06:17.605Z,100164.84
2022-12-11T23:08:44.606Z,100167.44
2022-12-11T23:11:24.095Z,100171.72
2022-12-11T23:13:50.917Z,100167.63
2022-12-11T23:16:25.234Z,100173.53
2022-12-11T23:18:52.280Z,100176.78
2022-12-11T23:21:18.963Z,100188.06
2022-12-11T23:23:46.365Z,100181.41
2022-12-11T23:26:15.183Z,100178.63
2022-12-11T23:28:42.247Z,100177.97
2022-12-11T23:31:11.682Z,100179.59
2022-12-11T23:33:38.418Z,100189.97
2022-12-11T23:36:05.408Z,100183.22
2022-12-11T23:38:32.455Z,100185.31
2022-12-11T23:41:01.812Z,100181.97
2022-12-11T23:43:28.424Z,100183.66
2022-12-11T23:45:56.017Z,100190.72
2022-12-11T23:48:22.741Z,100190.69
2022-12-11T23:50:49.462Z,100193.25
2022-12-11T23:53:16.198Z,100192.47
2022-12-11T23:55:45.135Z,100177.06
2022-12-11T23:58:12.027Z,100181.38
